Time,TemperatureF,DewpointF,PressureIn,WindDirection,WindDirectionDegrees,WindSpeedMPH,WindSpeedGustMPH,Humidity,HourlyPrecipIn,Conditions,Clouds,dailyrainin,SolarRadiationWatts/m^2,SoftwareType,DateUTC
2013-07-19 00:00:00,75.0,68.0,-100.00,SW,228,2.0,-999.0,78,0.00,,,-99.99,1.000000,,2013-07-19 05:00:00,
2013-07-19 00:32:00,75.0,68.0,-100.00,SW,228,2.0,-999.0,78,0.00,,,-99.99,1.000000,,2013-07-19 05:32:00,
2013-07-19 00:43:00,75.0,68.0,-100.00,SW,228,2.0,-999.0,78,0.00,,,-99.99,1.000000,,2013-07-19 05:43:00,
2013-07-19 00:53:00,75.0,68.0,-100.00,SW,228,2.0,-999.0,78,0.00,,,-99.99,1.000000,,2013-07-19 05:53:00,
2013-07-19 01:00:00,76.0,68.0,-100.00,WSW,242,0.0,-999.0,76,0.00,,,-99.99,1.000000,,2013-07-19 06:00:00,
2013-07-19 01:43:00,76.0,68.0,-100.00,WSW,242,0.0,-999.0,76,0.00,,,-99.99,1.000000,,2013-07-19 06:43:00,
2013-07-19 01:53:00,76.0,68.0,-100.00,WSW,242,0.0,-999.0,76,0.00,,,-99.99,1.000000,,2013-07-19 06:53:00,
2013-07-19 02:00:00,75.0,68.0,-100.00,ENE,69,0.0,-999.0,79,0.00,,,-99.99,1.000000,,2013-07-19 07:00:00,
2013-07-19 02:43:00,75.0,68.0,-100.00,ENE,69,0.0,-999.0,79,0.00,,,-99.99,1.000000,,2013-07-19 07:43:00,
2013-07-19 02:53:00,75.0,68.0,-100.00,ENE,69,0.0,-999.0,79,0.00,,,-99.99,1.000000,,2013-07-19 07:53:00,
2013-07-19 04:00:00,71.0,68.0,-100.00,SSE,154,2.0,-999.0,91,0.00,,,-99.99,1.000000,,2013-07-19 09:00:00,
2013-07-19 04:43:00,71.0,68.0,-100.00,SSE,154,2.0,-999.0,91,0.00,,,-99.99,1.000000,,2013-07-19 09:43:00,
2013-07-19 04:52:00,71.0,68.0,-100.00,SSE,154,2.0,-999.0,91,0.00,,,-99.99,1.000000,,2013-07-19 09:52:00,
2013-07-19 05:00:00,71.0,67.0,-100.00,SSE,154,0.0,-999.0,88,0.00,,,0.00,1.000000,,2013-07-19 10:00:00,
2013-07-19 05:32:00,71.0,67.0,-100.00,SSE,154,0.0,-999.0,88,0.00,,,0.00,1.000000,,2013-07-19 10:32:00,
2013-07-19 05:43:00,71.0,67.0,-100.00,SSE,154,0.0,-999.0,88,0.00,,,0.00,1.000000,,2013-07-19 10:43:00,
2013-07-19 05:52:00,71.0,67.0,-100.00,SSE,154,0.0,-999.0,88,0.00,,,0.00,1.000000,,2013-07-19 10:52:00,
2013-07-19 06:00:00,70.0,67.0,-100.00,SSE,158,2.0,-999.0,92,0.00,,,0.00,1.000000,,2013-07-19 11:00:00,
2013-07-19 06:33:00,70.0,67.0,-100.00,SSE,158,2.0,-999.0,92,0.00,,,0.00,1.000000,,2013-07-19 11:33:00,
2013-07-19 06:43:00,70.0,67.0,-100.00,SSE,158,2.0,-999.0,92,0.00,,,0.00,1.000000,,2013-07-19 11:43:00,
2013-07-19 06:52:00,70.0,67.0,-100.00,SSE,158,2.0,-999.0,92,0.00,,,0.00,1.000000,,2013-07-19 11:52:00,
2013-07-19 07:00:00,69.0,67.0,-100.00,SSE,159,2.0,-999.0,93,0.00,,,0.00,1.000000,,2013-07-19 12:00:00,
2013-07-19 07:44:00,69.0,67.0,-100.00,SSE,159,2.0,-999.0,93,0.00,,,0.00,1.000000,,2013-07-19 12:44:00,
2013-07-19 07:52:00,69.0,67.0,-100.00,SSE,159,2.0,-999.0,93,0.00,,,0.00,1.000000,,2013-07-19 12:52:00,
2013-07-19 08:00:00,71.0,68.0,-100.00,South,191,1.0,-999.0,88,0.00,,,0.00,1.000000,,2013-07-19 13:00:00,
2013-07-19 08:43:00,71.0,68.0,-100.00,South,191,1.0,-999.0,88,0.00,,,0.00,1.000000,,2013-07-19 13:43:00,
2013-07-19 08:53:00,71.0,68.0,-100.00,South,191,1.0,-999.0,88,0.00,,,0.00,1.000000,,2013-07-19 13:53:00,
2013-07-19 10:00:00,80.0,69.0,-100.00,SSE,168,1.0,-999.0,69,0.00,,,0.00,1.000000,,2013-07-19 15:00:00,
2013-07-19 10:32:00,80.0,69.0,-100.00,SSE,168,1.0,-999.0,69,0.00,,,0.00,1.000000,,2013-07-19 15:32:00,
2013-07-19 10:43:00,80.0,69.0,-100.00,SSE,168,1.0,-999.0,69,0.00,,,0.00,1.000000,,2013-07-19 15:43:00,
2013-07-19 10:52:00,80.0,69.0,-100.00,SSE,168,1.0,-999.0,69,0.00,,,0.00,1.000000,,2013-07-19 15:52:00,
2013-07-19 11:00:00,84.0,69.0,-100.00,South,174,1.0,-999.0,61,0.00,,,0.00,1.000000,,2013-07-19 16:00:00,
2013-07-19 11:32:00,84.0,69.0,-100.00,South,174,1.0,-999.0,61,0.00,,,0.00,1.000000,,2013-07-19 16:32:00,
2013-07-19 11:43:00,84.0,69.0,-100.00,South,174,1.0,-999.0,61,0.00,,,0.00,1.000000,,2013-07-19 16:43:00,
2013-07-19 11:53:00,84.0,69.0,-100.00,South,174,1.0,-999.0,61,0.00,,,0.00,1.000000,,2013-07-19 16:53:00,
2013-07-19 13:00:00,86.0,72.0,-100.00,South,184,1.0,-999.0,62,0.00,,,0.00,1.000000,,2013-07-19 18:00:00,
2013-07-19 13:43:00,86.0,72.0,-100.00,South,184,1.0,-999.0,62,0.00,,,0.00,1.000000,,2013-07-19 18:43:00,
2013-07-19 13:52:00,86.0,72.0,-100.00,South,184,1.0,-999.0,62,0.00,,,0.00,1.000000,,2013-07-19 18:52:00,
2013-07-19 14:00:00,83.0,77.0,-100.00,SSE,157,0.0,-999.0,81,0.02,,,0.02,0.000000,,2013-07-19 19:00:00,
2013-07-19 14:43:00,83.0,77.0,-100.00,SSE,157,0.0,-999.0,81,0.02,,,0.02,0.000000,,2013-07-19 19:43:00,
2013-07-19 14:52:00,83.0,77.0,-100.00,SSE,157,0.0,-999.0,81,0.02,,,0.02,0.000000,,2013-07-19 19:52:00,
2013-07-19 15:00:00,80.0,74.0,-100.00,South,189,1.0,-999.0,81,0.01,,,0.03,0.000000,,2013-07-19 20:00:00,
2013-07-19 15:43:00,80.0,74.0,-100.00,South,189,1.0,-999.0,81,0.01,,,0.03,0.000000,,2013-07-19 20:43:00,
2013-07-19 15:52:00,80.0,74.0,-100.00,South,189,1.0,-999.0,81,0.01,,,0.03,0.000000,,2013-07-19 20:52:00,
2013-07-19 16:00:00,78.0,68.0,-100.00,SSE,166,2.0,-999.0,72,0.00,,,0.03,1.000000,,2013-07-19 21:00:00,
2013-07-19 16:43:00,78.0,68.0,-100.00,SSE,166,2.0,-999.0,72,0.00,,,0.03,1.000000,,2013-07-19 21:43:00,
2013-07-19 16:52:00,78.0,68.0,-100.00,SSE,166,2.0,-999.0,72,0.00,,,0.03,1.000000,,2013-07-19 21:52:00,
2013-07-19 17:00:00,83.0,66.0,-100.00,South,173,1.0,-999.0,56,0.00,,,-99.99,1.000000,,2013-07-19 22:00:00,
2013-07-19 17:32:00,83.0,66.0,-100.00,South,173,1.0,-999.0,56,0.00,,,-99.99,1.000000,,2013-07-19 22:32:00,
2013-07-19 17:43:00,83.0,66.0,-100.00,South,173,1.0,-999.0,56,0.00,,,-99.99,1.000000,,2013-07-19 22:43:00,
2013-07-19 17:52:00,83.0,66.0,-100.00,South,173,1.0,-999.0,56,0.00,,,-99.99,1.000000,,2013-07-19 22:52:00,
2013-07-19 18:00:00,82.0,71.0,-100.00,North,353,0.0,-999.0,68,0.00,,,0.03,1.000000,,2013-07-19 23:00:00,
2013-07-19 18:33:00,82.0,71.0,-100.00,North,353,0.0,-999.0,68,0.00,,,0.03,1.000000,,2013-07-19 23:33:00,
2013-07-19 18:43:00,82.0,71.0,-100.00,North,353,0.0,-999.0,68,0.00,,,0.03,1.000000,,2013-07-19 23:43:00,
2013-07-19 18:52:00,82.0,71.0,-100.00,North,353,0.0,-999.0,68,0.00,,,0.03,1.000000,,2013-07-19 23:52:00,
2013-07-19 19:00:00,80.0,69.0,-100.00,WNW,298,2.0,-999.0,70,0.00,,,0.03,1.000000,,2013-07-20 00:00:00,
2013-07-19 19:43:00,80.0,69.0,-100.00,WNW,298,2.0,-999.0,70,0.00,,,0.03,1.000000,,2013-07-20 00:43:00,
2013-07-19 19:52:00,80.0,69.0,-100.00,WNW,298,2.0,-999.0,70,0.00,,,0.03,1.000000,,2013-07-20 00:52:00,
2013-07-19 20:00:00,76.0,70.0,-100.00,North,351,1.0,-999.0,81,0.02,,,0.05,1.000000,,2013-07-20 01:00:00,
2013-07-19 20:32:00,76.0,70.0,-100.00,North,351,1.0,-999.0,81,0.02,,,0.05,1.000000,,2013-07-20 01:32:00,
2013-07-19 20:52:00,76.0,70.0,-100.00,North,351,1.0,-999.0,81,0.02,,,0.05,1.000000,,2013-07-20 01:52:00,
2013-07-19 21:00:00,75.0,71.0,-100.00,ENE,67,0.0,-999.0,90,0.00,,,0.05,0.000000,,2013-07-20 02:00:00,
2013-07-19 21:33:00,75.0,71.0,-100.00,ENE,67,0.0,-999.0,90,0.00,,,0.05,0.000000,,2013-07-20 02:33:00,
2013-07-19 21:44:00,75.0,71.0,-100.00,ENE,67,0.0,-999.0,90,0.00,,,0.05,0.000000,,2013-07-20 02:44:00,
2013-07-19 21:52:00,75.0,71.0,-100.00,ENE,67,0.0,-999.0,90,0.00,,,0.05,0.000000,,2013-07-20 02:52:00,
2013-07-19 22:00:00,73.0,71.0,-100.00,SSE,154,0.0,-999.0,94,0.00,,,0.05,1.000000,,2013-07-20 03:00:00,
2013-07-19 22:44:00,73.0,71.0,-100.00,SSE,154,0.0,-999.0,94,0.00,,,0.05,1.000000,,2013-07-20 03:44:00,
2013-07-19 22:53:00,73.0,71.0,-100.00,SSE,154,0.0,-999.0,94,0.00,,,0.05,1.000000,,2013-07-20 03:53:00,